<?xml version="1.0" encoding="UTF-8" standalone="no" ?>
<gpx xmlns="http://www.topografix.com/GPX/1/1" xmlns:xsi="http://www.w3.org/2001/XMLSchema-instance" xsi:schemaLocation="http://www.topografix.com/GPX/1/1 http://www.topografix.com/GPX/1/1/gpx.xsd" version="1.1" creator="VisuGPX - https://www.visugpx.com">
  <metadata>
    <name>PREPARATION 10 KMS DE TOURS</name>
    <desc><![CDATA[Avec mes amis Rachel et Olivier, nous nous sommes entrainés ce dimanche pour les prochains 10 Kms de Tours. Voici le parcours de 9,2 kms.]]></desc>
  </metadata>
  <trk>
    <name><![CDATA[villebourg 180911]]></name>
    <trkseg>
      <trkpt lat="47.6508" lon="0.53107">
        <ele>134</ele>
        <time>2011-09-18T10:07:45Z</time>
      </trkpt>
      <trkpt lat="47.65086" lon="0.53106">
        <ele>133</ele>
        <time>2011-09-18T10:07:51Z</time>
      </trkpt>
      <trkpt lat="47.65097" lon="0.53119">
        <ele>132</ele>
        <time>2011-09-18T10:07:57Z</time>
      </trkpt>
      <trkpt lat="47.65131" lon="0.53194">
        <ele>134</ele>
        <time>2011-09-18T10:08:24Z</time>
      </trkpt>
      <trkpt lat="47.65163" lon="0.53317">
        <ele>134</ele>
        <time>2011-09-18T10:08:58Z</time>
      </trkpt>
      <trkpt lat="47.65188" lon="0.53393">
        <ele>136</ele>
        <time>2011-09-18T10:09:20Z</time>
      </trkpt>
      <trkpt lat="47.65238" lon="0.53568">
        <ele>146</ele>
        <time>2011-09-18T10:10:16Z</time>
      </trkpt>
      <trkpt lat="47.6524" lon="0.53583">
        <ele>146</ele>
        <time>2011-09-18T10:10:21Z</time>
      </trkpt>
      <trkpt lat="47.65331" lon="0.54072">
        <ele>168</ele>
        <time>2011-09-18T10:12:47Z</time>
      </trkpt>
      <trkpt lat="47.65337" lon="0.54088">
        <ele>168</ele>
        <time>2011-09-18T10:12:52Z</time>
      </trkpt>
      <trkpt lat="47.65502" lon="0.54456">
        <ele>166</ele>
        <time>2011-09-18T10:14:46Z</time>
      </trkpt>
      <trkpt lat="47.6556" lon="0.5455">
        <ele>163</ele>
        <time>2011-09-18T10:15:18Z</time>
      </trkpt>
      <trkpt lat="47.65573" lon="0.54568">
        <ele>162</ele>
        <time>2011-09-18T10:15:25Z</time>
      </trkpt>
      <trkpt lat="47.65578" lon="0.54586">
        <ele>161</ele>
        <time>2011-09-18T10:15:30Z</time>
      </trkpt>
      <trkpt lat="47.65572" lon="0.54602">
        <ele>161</ele>
        <time>2011-09-18T10:15:35Z</time>
      </trkpt>
      <trkpt lat="47.6552" lon="0.54664">
        <ele>163</ele>
        <time>2011-09-18T10:16:02Z</time>
      </trkpt>
      <trkpt lat="47.65506" lon="0.5467">
        <ele>163</ele>
        <time>2011-09-18T10:16:08Z</time>
      </trkpt>
      <trkpt lat="47.65239" lon="0.54755">
        <ele>174</ele>
        <time>2011-09-18T10:17:49Z</time>
      </trkpt>
      <trkpt lat="47.65222" lon="0.54758">
        <ele>175</ele>
        <time>2011-09-18T10:17:55Z</time>
      </trkpt>
      <trkpt lat="47.6483" lon="0.54871">
        <ele>153</ele>
        <time>2011-09-18T10:20:23Z</time>
      </trkpt>
      <trkpt lat="47.64814" lon="0.54874">
        <ele>152</ele>
        <time>2011-09-18T10:20:29Z</time>
      </trkpt>
      <trkpt lat="47.64756" lon="0.54895">
        <ele>150</ele>
        <time>2011-09-18T10:20:51Z</time>
      </trkpt>
      <trkpt lat="47.6471" lon="0.54905">
        <ele>149</ele>
        <time>2011-09-18T10:21:08Z</time>
      </trkpt>
      <trkpt lat="47.64645" lon="0.54937">
        <ele>146</ele>
        <time>2011-09-18T10:21:35Z</time>
      </trkpt>
      <trkpt lat="47.64617" lon="0.5494">
        <ele>144</ele>
        <time>2011-09-18T10:21:45Z</time>
      </trkpt>
      <trkpt lat="47.64511" lon="0.55003">
        <ele>137</ele>
        <time>2011-09-18T10:22:30Z</time>
      </trkpt>
      <trkpt lat="47.64494" lon="0.55006">
        <ele>138</ele>
        <time>2011-09-18T10:22:35Z</time>
      </trkpt>
      <trkpt lat="47.64462" lon="0.55048">
        <ele>137</ele>
        <time>2011-09-18T10:22:54Z</time>
      </trkpt>
      <trkpt lat="47.6446" lon="0.55063">
        <ele>137</ele>
        <time>2011-09-18T10:22:59Z</time>
      </trkpt>
      <trkpt lat="47.64434" lon="0.55091">
        <ele>136</ele>
        <time>2011-09-18T10:23:09Z</time>
      </trkpt>
      <trkpt lat="47.64437" lon="0.55112">
        <ele>135</ele>
        <time>2011-09-18T10:23:15Z</time>
      </trkpt>
      <trkpt lat="47.6442" lon="0.55144">
        <ele>134</ele>
        <time>2011-09-18T10:23:26Z</time>
      </trkpt>
      <trkpt lat="47.64426" lon="0.55145">
        <ele>134</ele>
        <time>2011-09-18T10:23:32Z</time>
      </trkpt>
      <trkpt lat="47.64385" lon="0.55127">
        <ele>136</ele>
        <time>2011-09-18T10:23:43Z</time>
      </trkpt>
      <trkpt lat="47.64367" lon="0.55123">
        <ele>136</ele>
        <time>2011-09-18T10:23:49Z</time>
      </trkpt>
      <trkpt lat="47.64357" lon="0.55115">
        <ele>137</ele>
        <time>2011-09-18T10:23:55Z</time>
      </trkpt>
      <trkpt lat="47.64342" lon="0.55114">
        <ele>138</ele>
        <time>2011-09-18T10:24:01Z</time>
      </trkpt>
      <trkpt lat="47.64272" lon="0.55047">
        <ele>137</ele>
        <time>2011-09-18T10:24:30Z</time>
      </trkpt>
      <trkpt lat="47.64203" lon="0.54867">
        <ele>131</ele>
        <time>2011-09-18T10:25:24Z</time>
      </trkpt>
      <trkpt lat="47.64198" lon="0.54853">
        <ele>131</ele>
        <time>2011-09-18T10:25:29Z</time>
      </trkpt>
      <trkpt lat="47.64142" lon="0.54796">
        <ele>133</ele>
        <time>2011-09-18T10:25:56Z</time>
      </trkpt>
      <trkpt lat="47.64087" lon="0.54761">
        <ele>130</ele>
        <time>2011-09-18T10:26:19Z</time>
      </trkpt>
      <trkpt lat="47.64058" lon="0.54731">
        <ele>130</ele>
        <time>2011-09-18T10:26:32Z</time>
      </trkpt>
      <trkpt lat="47.64005" lon="0.54651">
        <ele>132</ele>
        <time>2011-09-18T10:27:04Z</time>
      </trkpt>
      <trkpt lat="47.63881" lon="0.54561">
        <ele>136</ele>
        <time>2011-09-18T10:27:58Z</time>
      </trkpt>
      <trkpt lat="47.63864" lon="0.54549">
        <ele>138</ele>
        <time>2011-09-18T10:28:05Z</time>
      </trkpt>
      <trkpt lat="47.63759" lon="0.54413">
        <ele>138</ele>
        <time>2011-09-18T10:29:01Z</time>
      </trkpt>
      <trkpt lat="47.63746" lon="0.54401">
        <ele>137</ele>
        <time>2011-09-18T10:29:07Z</time>
      </trkpt>
      <trkpt lat="47.63542" lon="0.54418">
        <ele>127</ele>
        <time>2011-09-18T10:30:29Z</time>
      </trkpt>
      <trkpt lat="47.63528" lon="0.54424">
        <ele>127</ele>
        <time>2011-09-18T10:30:34Z</time>
      </trkpt>
      <trkpt lat="47.63509" lon="0.54426">
        <ele>126</ele>
        <time>2011-09-18T10:30:41Z</time>
      </trkpt>
      <trkpt lat="47.63496" lon="0.54426">
        <ele>126</ele>
        <time>2011-09-18T10:30:46Z</time>
      </trkpt>
      <trkpt lat="47.6347" lon="0.54432">
        <ele>125</ele>
        <time>2011-09-18T10:30:57Z</time>
      </trkpt>
      <trkpt lat="47.63455" lon="0.54431">
        <ele>125</ele>
        <time>2011-09-18T10:31:03Z</time>
      </trkpt>
      <trkpt lat="47.63439" lon="0.54427">
        <ele>125</ele>
        <time>2011-09-18T10:31:08Z</time>
      </trkpt>
      <trkpt lat="47.63429" lon="0.54417">
        <ele>124</ele>
        <time>2011-09-18T10:31:13Z</time>
      </trkpt>
      <trkpt lat="47.63417" lon="0.54397">
        <ele>121</ele>
        <time>2011-09-18T10:31:19Z</time>
      </trkpt>
      <trkpt lat="47.63414" lon="0.54377">
        <ele>120</ele>
        <time>2011-09-18T10:31:24Z</time>
      </trkpt>
      <trkpt lat="47.63411" lon="0.54308">
        <ele>117</ele>
        <time>2011-09-18T10:31:42Z</time>
      </trkpt>
      <trkpt lat="47.63404" lon="0.54215">
        <ele>116</ele>
        <time>2011-09-18T10:32:06Z</time>
      </trkpt>
      <trkpt lat="47.63401" lon="0.54188">
        <ele>114</ele>
        <time>2011-09-18T10:32:12Z</time>
      </trkpt>
      <trkpt lat="47.63393" lon="0.54151">
        <ele>112</ele>
        <time>2011-09-18T10:32:24Z</time>
      </trkpt>
      <trkpt lat="47.6338" lon="0.5413">
        <ele>114</ele>
        <time>2011-09-18T10:32:34Z</time>
      </trkpt>
      <trkpt lat="47.63376" lon="0.54118">
        <ele>115</ele>
        <time>2011-09-18T10:32:39Z</time>
      </trkpt>
      <trkpt lat="47.63368" lon="0.54016">
        <ele>115</ele>
        <time>2011-09-18T10:33:03Z</time>
      </trkpt>
      <trkpt lat="47.63369" lon="0.53989">
        <ele>115</ele>
        <time>2011-09-18T10:33:09Z</time>
      </trkpt>
      <trkpt lat="47.63374" lon="0.53969">
        <ele>116</ele>
        <time>2011-09-18T10:33:14Z</time>
      </trkpt>
      <trkpt lat="47.63374" lon="0.53952">
        <ele>116</ele>
        <time>2011-09-18T10:33:19Z</time>
      </trkpt>
      <trkpt lat="47.63347" lon="0.53866">
        <ele>117</ele>
        <time>2011-09-18T10:33:46Z</time>
      </trkpt>
      <trkpt lat="47.63342" lon="0.53824">
        <ele>117</ele>
        <time>2011-09-18T10:33:57Z</time>
      </trkpt>
      <trkpt lat="47.63337" lon="0.53806">
        <ele>117</ele>
        <time>2011-09-18T10:34:02Z</time>
      </trkpt>
      <trkpt lat="47.63352" lon="0.53789">
        <ele>117</ele>
        <time>2011-09-18T10:34:07Z</time>
      </trkpt>
      <trkpt lat="47.63353" lon="0.53775">
        <ele>117</ele>
        <time>2011-09-18T10:34:12Z</time>
      </trkpt>
      <trkpt lat="47.63344" lon="0.53754">
        <ele>116</ele>
        <time>2011-09-18T10:34:18Z</time>
      </trkpt>
      <trkpt lat="47.6333" lon="0.53732">
        <ele>116</ele>
        <time>2011-09-18T10:34:27Z</time>
      </trkpt>
      <trkpt lat="47.63307" lon="0.53722">
        <ele>116</ele>
        <time>2011-09-18T10:34:32Z</time>
      </trkpt>
      <trkpt lat="47.6326" lon="0.5366">
        <ele>120</ele>
        <time>2011-09-18T10:34:55Z</time>
      </trkpt>
      <trkpt lat="47.63249" lon="0.53538">
        <ele>123</ele>
        <time>2011-09-18T10:35:34Z</time>
      </trkpt>
      <trkpt lat="47.63243" lon="0.53515">
        <ele>124</ele>
        <time>2011-09-18T10:35:41Z</time>
      </trkpt>
      <trkpt lat="47.63236" lon="0.53493">
        <ele>123</ele>
        <time>2011-09-18T10:35:46Z</time>
      </trkpt>
      <trkpt lat="47.63233" lon="0.53467">
        <ele>124</ele>
        <time>2011-09-18T10:35:52Z</time>
      </trkpt>
      <trkpt lat="47.63234" lon="0.53447">
        <ele>125</ele>
        <time>2011-09-18T10:35:57Z</time>
      </trkpt>
      <trkpt lat="47.63231" lon="0.53421">
        <ele>126</ele>
        <time>2011-09-18T10:36:04Z</time>
      </trkpt>
      <trkpt lat="47.63232" lon="0.534">
        <ele>128</ele>
        <time>2011-09-18T10:36:09Z</time>
      </trkpt>
      <trkpt lat="47.63239" lon="0.53358">
        <ele>131</ele>
        <time>2011-09-18T10:36:19Z</time>
      </trkpt>
      <trkpt lat="47.63245" lon="0.53336">
        <ele>132</ele>
        <time>2011-09-18T10:36:24Z</time>
      </trkpt>
      <trkpt lat="47.63177" lon="0.52977">
        <ele>137</ele>
        <time>2011-09-18T10:38:07Z</time>
      </trkpt>
      <trkpt lat="47.63173" lon="0.52957">
        <ele>138</ele>
        <time>2011-09-18T10:38:13Z</time>
      </trkpt>
      <trkpt lat="47.62996" lon="0.52486">
        <ele>146</ele>
        <time>2011-09-18T10:40:42Z</time>
      </trkpt>
      <trkpt lat="47.62988" lon="0.52467">
        <ele>146</ele>
        <time>2011-09-18T10:40:48Z</time>
      </trkpt>
      <trkpt lat="47.62936" lon="0.52396">
        <ele>146</ele>
        <time>2011-09-18T10:41:20Z</time>
      </trkpt>
      <trkpt lat="47.62926" lon="0.52365">
        <ele>147</ele>
        <time>2011-09-18T10:41:31Z</time>
      </trkpt>
      <trkpt lat="47.63188" lon="0.52446">
        <ele>146</ele>
        <time>2011-09-18T10:43:15Z</time>
      </trkpt>
      <trkpt lat="47.63202" lon="0.5245">
        <ele>147</ele>
        <time>2011-09-18T10:43:20Z</time>
      </trkpt>
      <trkpt lat="47.63571" lon="0.52506">
        <ele>141</ele>
        <time>2011-09-18T10:45:46Z</time>
      </trkpt>
      <trkpt lat="47.63585" lon="0.52496">
        <ele>140</ele>
        <time>2011-09-18T10:45:52Z</time>
      </trkpt>
      <trkpt lat="47.63715" lon="0.52407">
        <ele>136</ele>
        <time>2011-09-18T10:46:47Z</time>
      </trkpt>
      <trkpt lat="47.63725" lon="0.52401">
        <ele>136</ele>
        <time>2011-09-18T10:46:52Z</time>
      </trkpt>
      <trkpt lat="47.6396" lon="0.52402">
        <ele>134</ele>
        <time>2011-09-18T10:48:22Z</time>
      </trkpt>
      <trkpt lat="47.63973" lon="0.52403">
        <ele>134</ele>
        <time>2011-09-18T10:48:27Z</time>
      </trkpt>
      <trkpt lat="47.64353" lon="0.52344">
        <ele>123</ele>
        <time>2011-09-18T10:50:54Z</time>
      </trkpt>
      <trkpt lat="47.64364" lon="0.52335">
        <ele>122</ele>
        <time>2011-09-18T10:50:59Z</time>
      </trkpt>
      <trkpt lat="47.64451" lon="0.52269">
        <ele>123</ele>
        <time>2011-09-18T10:51:38Z</time>
      </trkpt>
      <trkpt lat="47.64476" lon="0.52259">
        <ele>124</ele>
        <time>2011-09-18T10:51:48Z</time>
      </trkpt>
      <trkpt lat="47.64511" lon="0.52255">
        <ele>125</ele>
        <time>2011-09-18T10:52:02Z</time>
      </trkpt>
      <trkpt lat="47.64547" lon="0.52235">
        <ele>123</ele>
        <time>2011-09-18T10:52:17Z</time>
      </trkpt>
      <trkpt lat="47.64692" lon="0.52098">
        <ele>125</ele>
        <time>2011-09-18T10:53:27Z</time>
      </trkpt>
      <trkpt lat="47.64701" lon="0.52089">
        <ele>125</ele>
        <time>2011-09-18T10:53:32Z</time>
      </trkpt>
      <trkpt lat="47.64763" lon="0.52034">
        <ele>122</ele>
        <time>2011-09-18T10:53:59Z</time>
      </trkpt>
      <trkpt lat="47.64794" lon="0.52003">
        <ele>123</ele>
        <time>2011-09-18T10:54:15Z</time>
      </trkpt>
      <trkpt lat="47.64805" lon="0.51993">
        <ele>123</ele>
        <time>2011-09-18T10:54:21Z</time>
      </trkpt>
      <trkpt lat="47.64817" lon="0.51993">
        <ele>123</ele>
        <time>2011-09-18T10:54:27Z</time>
      </trkpt>
      <trkpt lat="47.64994" lon="0.52265">
        <ele>120</ele>
        <time>2011-09-18T10:55:58Z</time>
      </trkpt>
      <trkpt lat="47.64999" lon="0.52286">
        <ele>120</ele>
        <time>2011-09-18T10:56:03Z</time>
      </trkpt>
      <trkpt lat="47.65006" lon="0.52358">
        <ele>119</ele>
        <time>2011-09-18T10:56:20Z</time>
      </trkpt>
      <trkpt lat="47.65005" lon="0.52379">
        <ele>119</ele>
        <time>2011-09-18T10:56:25Z</time>
      </trkpt>
      <trkpt lat="47.65007" lon="0.52403">
        <ele>118</ele>
        <time>2011-09-18T10:56:31Z</time>
      </trkpt>
      <trkpt lat="47.64998" lon="0.52425">
        <ele>118</ele>
        <time>2011-09-18T10:56:37Z</time>
      </trkpt>
      <trkpt lat="47.64987" lon="0.52445">
        <ele>118</ele>
        <time>2011-09-18T10:56:43Z</time>
      </trkpt>
      <trkpt lat="47.64901" lon="0.52524">
        <ele>119</ele>
        <time>2011-09-18T10:57:24Z</time>
      </trkpt>
      <trkpt lat="47.64856" lon="0.52558">
        <ele>117</ele>
        <time>2011-09-18T10:57:40Z</time>
      </trkpt>
      <trkpt lat="47.64778" lon="0.52729">
        <ele>109</ele>
        <time>2011-09-18T10:58:29Z</time>
      </trkpt>
      <trkpt lat="47.64768" lon="0.5275">
        <ele>110</ele>
        <time>2011-09-18T10:58:35Z</time>
      </trkpt>
      <trkpt lat="47.6475" lon="0.52789">
        <ele>110</ele>
        <time>2011-09-18T10:58:46Z</time>
      </trkpt>
      <trkpt lat="47.6475" lon="0.52801">
        <ele>109</ele>
        <time>2011-09-18T10:58:51Z</time>
      </trkpt>
      <trkpt lat="47.64759" lon="0.52805">
        <ele>108</ele>
        <time>2011-09-18T10:58:56Z</time>
      </trkpt>
      <trkpt lat="47.64785" lon="0.52819">
        <ele>110</ele>
        <time>2011-09-18T10:59:07Z</time>
      </trkpt>
      <trkpt lat="47.64847" lon="0.52835">
        <ele>110</ele>
        <time>2011-09-18T10:59:31Z</time>
      </trkpt>
      <trkpt lat="47.64865" lon="0.52836">
        <ele>111</ele>
        <time>2011-09-18T10:59:37Z</time>
      </trkpt>
      <trkpt lat="47.64882" lon="0.52842">
        <ele>111</ele>
        <time>2011-09-18T10:59:43Z</time>
      </trkpt>
      <trkpt lat="47.64895" lon="0.52852">
        <ele>111</ele>
        <time>2011-09-18T10:59:50Z</time>
      </trkpt>
      <trkpt lat="47.64923" lon="0.52896">
        <ele>111</ele>
        <time>2011-09-18T11:00:06Z</time>
      </trkpt>
      <trkpt lat="47.64934" lon="0.52915">
        <ele>111</ele>
        <time>2011-09-18T11:00:11Z</time>
      </trkpt>
      <trkpt lat="47.64979" lon="0.52936">
        <ele>112</ele>
        <time>2011-09-18T11:00:29Z</time>
      </trkpt>
      <trkpt lat="47.64987" lon="0.52943">
        <ele>114</ele>
        <time>2011-09-18T11:00:34Z</time>
      </trkpt>
      <trkpt lat="47.65034" lon="0.53024">
        <ele>117</ele>
        <time>2011-09-18T11:01:04Z</time>
      </trkpt>
      <trkpt lat="47.6504" lon="0.53047">
        <ele>117</ele>
        <time>2011-09-18T11:01:10Z</time>
      </trkpt>
      <trkpt lat="47.65055" lon="0.53081">
        <ele>119</ele>
        <time>2011-09-18T11:01:21Z</time>
      </trkpt>
      <trkpt lat="47.65079" lon="0.53101">
        <ele>127</ele>
        <time>2011-09-18T11:01:37Z</time>
      </trkpt>
    </trkseg>
  </trk>
</gpx>